Stations météo

Publicité
Lus-La-Croix-Haute, France (7587): Température de l'air & dewpoint: 17.04.2017 23:00:00 - 23.04.2017 23:00:00 (CEST)Lus-La-Croix-Haute, France (7587): Vitesse du vent & gusts: 17.04.2017 23:00:00 - 23.04.2017 23:00:00 (CEST)Lus-La-Croix-Haute, France (7587): Direction du vent: 17.04.2017 23:00:00 - 23.04.2017 23:00:00 (CEST)Lus-La-Croix-Haute, France (7587): Quantités de précipitations: 17.04.2017 23:00:00 - 23.04.2017 23:00:00 (CEST)
Date & Time tt [°C] td [°C] ff [km/h] ff [knt] fx [km/h] fx [knt] dd rr [mm]
23.04.2017 23:00:00 7,2 1,7 5 3 16 9 NE 0,0
23.04.2017 22:00:00 7,9 2,4 8 4 18 10 N 0,0
23.04.2017 21:00:00 9,7 2,1 9 5 26 14 NW 0,0
23.04.2017 20:00:00 12,1 2,0 13 7 29 16 NNW -
23.04.2017 19:00:00 15,3 3,4 16 9 37 20 NNW 0,0
23.04.2017 18:00:00 16,5 2,8 16 9 37 20 NNW 0,0
23.04.2017 17:00:00 16,8 2,0 15 8 48 26 NNW 0,0
23.04.2017 16:00:00 16,8 0,8 21 11 46 25 NNW 0,0
23.04.2017 15:00:00 16,0 3,4 16 9 48 26 NW 0,0
23.04.2017 14:00:00 15,0 2,5 18 10 44 24 NNW -
23.04.2017 13:00:00 13,1 2,0 18 10 42 23 NNW 0,0
23.04.2017 12:00:00 11,7 0,7 22 12 48 26 N 0,0
23.04.2017 11:00:00 10,3 1,4 21 11 46 25 NNW 0,0
23.04.2017 10:00:00 8,9 1,3 21 11 41 22 NNW 0,0
23.04.2017 09:00:00 7,5 1,1 18 10 37 20 NNW 0,0
23.04.2017 08:00:00 4,1 0,2 9 5 18 10 NNW -
23.04.2017 07:00:00 4,9 0,1 9 5 41 22 NNW 0,0
23.04.2017 06:00:00 5,1 0,5 24 13 41 22 NW 0,0
23.04.2017 05:00:00 4,6 -0,2 5 3 34 18 N 0,0
23.04.2017 04:00:00 6,1 0,0 16 9 39 21 NW 0,0
23.04.2017 03:00:00 6,2 -1,2 15 8 24 13 NW 0,0
23.04.2017 02:00:00 6,0 -2,9 5 3 28 15 N -
23.04.2017 01:00:00 6,6 -2,1 13 7 22 12 NW 0,0
23.04.2017 00:00:00 7,3 -2,7 5 3 26 14 N 0,0
22.04.2017 23:00:00 8,0 -2,6 16 9 39 21 NNW 0,0
22.04.2017 22:00:00 8,7 -2,0 15 8 28 15 NNW 0,0
22.04.2017 21:00:00 10,4 -2,3 16 9 31 17 NNW 0,0
22.04.2017 20:00:00 12,5 -2,2 18 10 41 22 NNW -
22.04.2017 19:00:00 15,5 -3,0 24 13 41 22 NNW 0,0
22.04.2017 18:00:00 16,7 -1,0 24 13 44 24 WNW 0,0
22.04.2017 17:00:00 17,6 -1,6 26 14 42 23 WNW 0,0
22.04.2017 16:00:00 18,6 -2,4 15 8 44 24 NW 0,0
22.04.2017 15:00:00 17,2 -3,0 15 8 37 20 NNW 0,0
22.04.2017 14:00:00 16,5 -1,6 15 8 44 24 NW -
22.04.2017 13:00:00 14,3 -2,2 28 15 46 25 NW 0,0
22.04.2017 12:00:00 14,0 -2,5 24 13 41 22 NW 0,0
22.04.2017 11:00:00 12,7 -3,6 18 10 37 20 WNW 0,0
22.04.2017 10:00:00 10,9 -4,0 5 3 16 9 WSW 0,0
22.04.2017 09:00:00 4,1 -0,7 4 2 8 4 SE 0,0
22.04.2017 08:00:00 -1,0 -4,2 2 1 5 3 N -
22.04.2017 07:00:00 -1,3 -4,8 2 1 5 3 E 0,0
22.04.2017 06:00:00 -0,9 -5,0 2 1 5 3 ENE 0,0
22.04.2017 05:00:00 -0,7 -4,6 2 1 5 3 SE 0,0
22.04.2017 04:00:00 0,1 -4,5 4 2 9 5 NW 0,0
22.04.2017 03:00:00 0,6 -4,2 2 1 8 4 SW 0,0
22.04.2017 02:00:00 1,5 -4,2 2 1 9 5 S -
22.04.2017 01:00:00 2,5 -4,3 4 2 13 7 N 0,0
22.04.2017 00:00:00 3,9 -3,9 2 1 9 5 E 0,0
21.04.2017 23:00:00 4,5 -3,8 8 4 15 8 N 0,0
21.04.2017 22:00:00 5,7 -3,7 8 4 21 11 NNW 0,0
21.04.2017 21:00:00 6,9 -4,5 5 3 22 12 NNW 0,0
21.04.2017 20:00:00 8,9 -4,7 11 6 31 17 NW -
21.04.2017 19:00:00 12,2 -4,0 18 10 39 21 NNW 0,0
21.04.2017 18:00:00 14,0 -4,2 16 9 37 20 NW 0,0
21.04.2017 17:00:00 14,2 -2,3 21 11 39 21 WNW 0,0
21.04.2017 16:00:00 14,5 -4,3 24 13 39 21 WNW 0,0
21.04.2017 15:00:00 14,4 -5,9 18 10 35 19 WNW 0,0
21.04.2017 14:00:00 14,7 -5,1 11 6 34 18 NW -
21.04.2017 13:00:00 13,0 -7,1 11 6 26 14 NW 0,0
21.04.2017 12:00:00 11,4 -10,2 5 3 21 11 NNW 0,0
21.04.2017 11:00:00 10,5 -9,8 8 4 13 7 SE 0,0
21.04.2017 10:00:00 5,1 -6,2 4 2 8 4 S 0,0
21.04.2017 09:00:00 -0,1 -7,4 2 1 8 4 NNW 0,0
21.04.2017 08:00:00 -4,2 -8,5 4 2 8 4 SE -
21.04.2017 07:00:00 -3,9 -8,8 0 0 4 2 SSE 0,0
21.04.2017 06:00:00 -3,5 -8,7 0 0 4 2 NNW 0,0
21.04.2017 05:00:00 -3,1 -9,0 2 1 5 3 NW 0,0
21.04.2017 04:00:00 -2,5 -9,4 2 1 5 3 ENE 0,0
21.04.2017 03:00:00 -1,7 -9,3 2 1 8 4 ESE 0,0
21.04.2017 02:00:00 -1,3 -9,9 4 2 11 6 NE -
21.04.2017 01:00:00 -0,9 -9,5 4 2 21 11 NE 0,0
21.04.2017 00:00:00 0,8 -9,8 11 6 28 15 NNW 0,0
20.04.2017 23:00:00 1,9 -9,4 8 4 18 10 N 0,0
20.04.2017 22:00:00 2,5 -9,4 8 4 21 11 SSE 0,0
20.04.2017 21:00:00 3,3 -7,8 4 2 37 20 N 0,0
20.04.2017 20:00:00 4,9 -9,7 21 11 42 23 NNW -
20.04.2017 19:00:00 7,1 -8,5 18 10 59 32 NNW 0,0
20.04.2017 18:00:00 8,6 -5,7 18 10 54 29 NW 0,0
20.04.2017 17:00:00 8,1 -6,1 26 14 61 33 NW 0,0
20.04.2017 16:00:00 8,3 -5,2 22 12 44 24 NNW 0,0
20.04.2017 15:00:00 8,1 -6,5 15 8 44 24 N 0,0
20.04.2017 14:00:00 6,9 -7,9 22 12 48 26 N -
20.04.2017 13:00:00 6,6 -6,1 18 10 41 22 NNW 0,0
20.04.2017 12:00:00 5,5 -7,4 18 10 37 20 NNW 0,0
20.04.2017 11:00:00 4,1 -5,4 13 7 31 17 NW 0,0
20.04.2017 10:00:00 2,3 -5,6 9 5 21 11 WSW 0,0
20.04.2017 09:00:00 -0,5 -5,9 4 2 9 5 N 0,0
20.04.2017 08:00:00 -3,6 -6,2 5 3 11 6 SW -
20.04.2017 07:00:00 -3,2 -6,5 4 2 18 10 NNE 0,0
20.04.2017 06:00:00 -2,8 -6,1 4 2 21 11 N 0,0
20.04.2017 05:00:00 -2,5 -6,0 4 2 28 15 N 0,0
20.04.2017 04:00:00 -2,0 -5,8 11 6 22 12 NNW 0,0
20.04.2017 03:00:00 -1,9 -5,7 8 4 22 12 N 0,0
20.04.2017 02:00:00 -1,5 -6,1 4 2 18 10 N -
20.04.2017 01:00:00 -1,2 -6,0 11 6 28 15 NW 0,0
20.04.2017 00:00:00 -0,6 -6,4 5 3 29 16 WNW 0,0
19.04.2017 23:00:00 -0,3 -7,3 18 10 46 25 NNW 0,0
19.04.2017 22:00:00 0,6 -7,4 16 9 67 36 NNW 0,0
19.04.2017 21:00:00 1,8 -8,6 29 16 67 36 N 0,0
19.04.2017 20:00:00 2,9 -9,7 22 12 59 32 NNW -
19.04.2017 19:00:00 5,2 -10,2 22 12 67 36 N 0,0
19.04.2017 18:00:00 6,4 -9,9 26 14 70 38 N 0,0
19.04.2017 17:00:00 6,6 -10,2 37 20 83 45 NNW 0,0
19.04.2017 16:00:00 6,7 -8,9 35 19 74 40 NNW 0,0
19.04.2017 15:00:00 6,8 -8,4 29 16 70 38 NNW 0,0
19.04.2017 14:00:00 6,8 -6,6 22 12 65 35 N -
19.04.2017 13:00:00 5,3 -7,6 31 17 70 38 NNW 0,0
19.04.2017 12:00:00 4,5 -7,3 29 16 59 32 NNW 0,0
19.04.2017 11:00:00 3,4 -7,4 21 11 42 23 NNW 0,0
19.04.2017 10:00:00 1,4 -7,6 11 6 31 17 N 0,0
19.04.2017 09:00:00 -0,3 -7,3 11 6 28 15 N 0,0
19.04.2017 08:00:00 -3,1 -8,0 8 4 21 11 NNW -
19.04.2017 07:00:00 -3,6 -8,3 9 5 22 12 NNW 0,0
19.04.2017 06:00:00 -3,1 -9,0 5 3 22 12 N 0,0
19.04.2017 05:00:00 -1,9 -9,1 9 5 29 16 N 0,0
19.04.2017 04:00:00 -2,0 -9,8 5 3 37 20 N 0,0
19.04.2017 03:00:00 -1,5 -9,4 5 3 28 15 NNW 0,0
19.04.2017 02:00:00 -0,6 -9,8 15 8 34 18 NNW -
19.04.2017 01:00:00 -0,1 -10,4 11 6 41 22 NNW 0,0
19.04.2017 00:00:00 1,2 -11,3 21 11 81 44 N 0,0
18.04.2017 23:00:00 2,0 -11,9 18 10 91 49 N 0,0
18.04.2017 22:00:00 2,6 -13,3 29 16 83 45 N 0,0
18.04.2017 21:00:00 3,4 -13,4 26 14 85 46 N 0,0
18.04.2017 20:00:00 4,2 -12,7 28 15 91 49 N -
18.04.2017 19:00:00 6,0 -12,1 29 16 87 47 NNW 0,0
18.04.2017 18:00:00 6,9 -10,8 34 18 94 51 NNW 0,0
18.04.2017 17:00:00 7,9 -10,5 29 16 81 44 NNW 0,0
18.04.2017 16:00:00 7,8 -9,6 28 15 96 52 N 0,0
18.04.2017 15:00:00 7,3 -9,6 41 22 96 52 NNW 0,0
18.04.2017 14:00:00 6,9 -7,9 37 20 93 50 NNW -
18.04.2017 13:00:00 6,7 -4,1 39 21 93 50 NNW 0,0
18.04.2017 12:00:00 6,6 -2,3 37 20 96 52 NNW 0,0
18.04.2017 11:00:00 5,3 -0,3 26 14 85 46 NNW 0,0
18.04.2017 10:00:00 4,6 -0,4 22 12 70 38 N 0,0
18.04.2017 09:00:00 4,6 -0,8 15 8 50 27 NNW 0,0
18.04.2017 08:00:00 4,4 -1,0 15 8 55 30 N -
18.04.2017 07:00:00 4,5 -0,7 16 9 54 29 NNW 0,0
18.04.2017 06:00:00 5,0 0,0 16 9 55 30 NNE 0,0
18.04.2017 05:00:00 5,2 -0,2 21 11 70 38 N 0,0
18.04.2017 04:00:00 5,4 0,4 16 9 59 32 N 0,0
18.04.2017 03:00:00 5,7 -0,2 15 8 50 27 NNE 0,0
18.04.2017 02:00:00 5,9 0,4 11 6 52 28 NNE -
18.04.2017 01:00:00 5,8 0,1 4 2 28 15 NNE 0,0
18.04.2017 00:00:00 6,3 0,2 4 2 29 16 SW 0,0
17.04.2017 23:00:00 6,7 0,1 8 4 35 19 NNW 0,0

tt = Température de l'air
td = dewpoint
ff = Vitesse du vent
fx = gusts
dd = Direction du vent
rr = Quantités de précipitations

stations d'obs. à proximité